createdAt,value
2018-02-11T00:02:13.662Z,0.10
2018-02-11T00:04:41.235Z,0.20
2018-02-11T00:07:08.735Z,0.10
2018-02-11T00:09:36.261Z,0.10
2018-02-11T00:12:03.763Z,0.10
2018-02-11T00:14:32.022Z,0.10
2018-02-11T00:16:59.485Z,0.10
2018-02-11T00:19:26.978Z,0.10
2018-02-11T00:21:54.453Z,0.10
2018-02-11T00:24:21.958Z,0.10
2018-02-11T00:26:49.440Z,0.10
2018-02-11T00:29:17.702Z,0.10
2018-02-11T00:31:45.219Z,0.10
2018-02-11T00:34:12.723Z,0.00
2018-02-11T00:36:46.048Z,0.10
2018-02-11T00:39:14.286Z,0.00
2018-02-11T00:41:41.791Z,0.00
2018-02-11T00:44:09.254Z,0.10
2018-02-11T00:46:36.767Z,0.00
2018-02-11T00:49:04.274Z,0.10
2018-02-11T00:51:31.735Z,0.00
2018-02-11T00:53:59.217Z,0.10
2018-02-11T00:56:26.696Z,0.10
2018-02-11T00:58:54.181Z,0.20
2018-02-11T01:01:21.666Z,0.20
2018-02-11T01:03:49.174Z,0.20
2018-02-11T01:06:16.639Z,0.30
2018-02-11T01:08:44.908Z,0.30
2018-02-11T01:11:12.408Z,0.30
2018-02-11T01:13:39.880Z,0.30
2018-02-11T01:16:07.391Z,0.30
2018-02-11T01:18:34.867Z,0.30
2018-02-11T01:21:03.155Z,0.30
2018-02-11T01:23:30.626Z,0.30
2018-02-11T01:25:58.094Z,0.30
2018-02-11T01:28:25.709Z,0.30
2018-02-11T01:30:53.191Z,0.20
2018-02-11T01:33:21.449Z,0.30
2018-02-11T01:35:49.686Z,0.30
2018-02-11T01:38:17.173Z,0.30
2018-02-11T01:40:44.642Z,0.30
2018-02-11T01:43:12.918Z,0.30
2018-02-11T01:45:41.145Z,0.30
2018-02-11T01:48:08.623Z,0.30
2018-02-11T01:50:36.121Z,0.30
2018-02-11T01:53:04.353Z,0.30
2018-02-11T01:55:31.858Z,0.30
2018-02-11T01:58:00.089Z,0.30
2018-02-11T02:00:27.607Z,0.20
2018-02-11T02:02:55.058Z,0.30
2018-02-11T02:05:22.541Z,0.30
2018-02-11T02:07:50.038Z,0.30
2018-02-11T02:10:17.510Z,0.30
2018-02-11T02:12:44.989Z,0.30
2018-02-11T02:15:12.451Z,0.30
2018-02-11T02:17:39.950Z,0.30
2018-02-11T02:20:07.415Z,0.30
2018-02-11T02:22:35.010Z,0.30
2018-02-11T02:25:03.281Z,0.30
2018-02-11T02:27:30.770Z,0.30
2018-02-11T02:29:58.253Z,0.30
2018-02-11T02:32:25.726Z,0.30
2018-02-11T02:34:53.218Z,0.20
2018-02-11T02:37:21.480Z,0.10
2018-02-11T02:39:49.745Z,0.10
2018-02-11T02:42:17.277Z,0.10
2018-02-11T02:44:44.734Z,0.10
2018-02-11T02:47:12.239Z,0.10
2018-02-11T02:49:39.722Z,0.20
2018-02-11T02:52:07.974Z,0.20
2018-02-11T02:54:35.458Z,0.20
2018-02-11T02:57:02.994Z,0.20
2018-02-11T02:59:31.235Z,0.30
2018-02-11T03:01:58.750Z,0.30
2018-02-11T03:04:26.970Z,0.30
2018-02-11T03:06:54.466Z,0.30
2018-02-11T03:09:22.726Z,0.30
2018-02-11T03:11:50.963Z,0.30
2018-02-11T03:14:18.458Z,0.30
2018-02-11T03:16:45.937Z,0.30
2018-02-11T03:19:13.447Z,0.30
2018-02-11T03:21:40.930Z,0.30
2018-02-11T03:24:08.439Z,0.20
2018-02-11T03:26:35.931Z,0.20
2018-02-11T03:29:03.422Z,0.20
2018-02-11T03:31:30.886Z,0.30
2018-02-11T03:33:58.354Z,0.30
2018-02-11T03:36:26.617Z,0.30
2018-02-11T03:38:54.078Z,0.30
2018-02-11T03:41:21.612Z,0.30
2018-02-11T08:49:22.679Z,0.50
2018-02-11T08:51:50.151Z,0.50
2018-02-11T08:54:17.643Z,0.50
2018-02-11T08:56:45.894Z,0.60
2018-02-11T08:59:14.879Z,0.60
2018-02-11T09:01:42.403Z,0.60
2018-02-11T09:04:09.884Z,0.60
2018-02-11T09:06:37.405Z,0.50
2018-02-11T09:09:04.891Z,0.60
2018-02-11T09:11:32.386Z,0.70
2018-02-11T09:13:59.881Z,0.70
2018-02-11T09:16:28.172Z,0.80
2018-02-11T09:18:55.671Z,0.70
2018-02-11T09:21:23.121Z,0.80
2018-02-11T09:23:50.618Z,0.80
2018-02-11T09:26:18.849Z,0.80
2018-02-11T09:28:46.354Z,0.70
2018-02-11T09:31:14.590Z,0.80
2018-02-11T09:33:42.058Z,0.80
2018-02-11T09:36:09.571Z,0.80
2018-02-11T09:38:37.042Z,0.80
2018-02-11T09:41:04.562Z,0.80
2018-02-11T09:43:32.782Z,0.90
2018-02-11T09:46:00.296Z,0.80
2018-02-11T09:48:28.549Z,0.80
2018-02-11T09:50:56.051Z,0.90
2018-02-11T09:53:24.273Z,0.90
2018-02-11T09:55:51.814Z,0.80
2018-02-11T09:58:19.318Z,0.90
2018-02-11T10:00:46.771Z,0.90
2018-02-11T10:03:14.278Z,0.90
2018-02-11T10:05:41.782Z,0.90
2018-02-11T10:08:09.286Z,1.00
2018-02-11T10:10:36.753Z,1.00
2018-02-11T10:13:04.254Z,0.90
2018-02-11T10:15:31.726Z,0.80
2018-02-11T10:17:59.989Z,0.70
2018-02-11T10:20:27.461Z,0.70
2018-02-11T10:22:54.979Z,0.70
2018-02-11T10:25:22.462Z,0.80
2018-02-11T10:27:49.951Z,0.80
2018-02-11T10:30:18.214Z,0.70
2018-02-11T10:32:45.686Z,0.70
2018-02-11T10:35:13.930Z,0.60
2018-02-11T10:37:41.422Z,0.60
2018-02-11T10:40:09.709Z,0.60
2018-02-11T10:42:37.999Z,0.70
2018-02-11T10:45:05.465Z,0.70
2018-02-11T10:47:32.983Z,0.70
2018-02-11T10:50:00.440Z,0.70
2018-02-11T10:52:27.974Z,0.80
2018-02-11T10:54:55.438Z,0.80
2018-02-11T10:57:22.936Z,0.80
2018-02-11T10:59:51.171Z,1.00
2018-02-11T11:02:18.662Z,1.00
2018-02-11T11:04:46.938Z,1.20
2018-02-11T11:07:15.219Z,1.20
2018-02-11T11:09:43.484Z,1.20
2018-02-11T11:12:10.960Z,1.20
2018-02-11T11:14:39.271Z,1.30
2018-02-11T11:17:06.724Z,1.30
2018-02-11T11:19:34.203Z,1.30
2018-02-11T11:22:01.696Z,1.40
2018-02-11T11:24:29.946Z,1.60
2018-02-11T11:26:57.429Z,1.60
2018-02-11T11:29:24.948Z,1.70
2018-02-11T11:31:52.450Z,1.80
2018-02-11T11:34:20.686Z,2.10
2018-02-11T11:36:48.215Z,2.00
2018-02-11T11:39:15.741Z,2.00
2018-02-11T11:41:43.209Z,2.20
2018-02-11T11:44:11.470Z,2.20
2018-02-11T11:46:38.936Z,2.10
2018-02-11T11:49:07.208Z,2.40
2018-02-11T11:51:34.719Z,2.40
2018-02-11T11:54:02.236Z,2.50
2018-02-11T11:56:30.497Z,2.60
2018-02-11T11:58:57.969Z,2.60
2018-02-11T12:01:25.490Z,2.70
2018-02-11T12:03:52.970Z,2.70
2018-02-11T12:06:20.466Z,2.70
2018-02-11T12:08:48.726Z,2.80
2018-02-11T12:11:16.260Z,2.80
2018-02-11T12:13:43.754Z,2.80
2018-02-11T12:16:12.041Z,2.60
2018-02-11T12:18:40.270Z,2.40
2018-02-11T12:21:07.756Z,2.40
2018-02-11T12:23:36.020Z,2.20
2018-02-11T12:26:03.562Z,2.20
2018-02-11T12:28:31.047Z,2.30
2018-02-11T12:30:58.545Z,2.40
2018-02-11T12:33:26.084Z,2.50
2018-02-11T12:35:53.525Z,2.50
2018-02-11T12:38:21.797Z,2.50
2018-02-11T12:40:50.060Z,2.50
2018-02-11T12:43:17.577Z,2.50
2018-02-11T12:45:45.093Z,2.50
2018-02-11T12:48:12.574Z,2.50
2018-02-11T12:50:40.815Z,2.50
2018-02-11T12:53:08.331Z,2.40
2018-02-11T12:55:35.793Z,2.60
2018-02-11T12:58:03.311Z,2.70
2018-02-11T13:00:31.590Z,2.40
2018-02-11T13:02:59.831Z,2.50
2018-02-11T13:05:27.335Z,2.40
2018-02-11T13:07:54.804Z,2.60
2018-02-11T13:10:22.320Z,2.50
2018-02-11T13:12:49.778Z,2.60
2018-02-11T13:15:17.260Z,2.60
2018-02-11T13:17:45.530Z,2.40
2018-02-11T13:20:13.794Z,2.30
2018-02-11T13:22:41.283Z,2.30
2018-02-11T13:25:08.766Z,2.40
2018-02-11T13:27:36.262Z,2.30
2018-02-11T13:30:03.779Z,2.20
2018-02-11T13:32:31.296Z,2.30
2018-02-11T13:34:58.850Z,2.30
2018-02-11T13:37:26.351Z,2.30
2018-02-11T13:39:53.849Z,2.40
2018-02-11T13:42:21.346Z,2.40
2018-02-11T13:44:49.594Z,2.30
2018-02-11T13:47:17.064Z,2.30
2018-02-11T13:49:45.323Z,2.30
2018-02-11T13:52:12.829Z,2.30
2018-02-11T13:54:40.299Z,2.40
2018-02-11T13:57:07.837Z,2.40
2018-02-11T13:59:36.090Z,2.40
2018-02-11T14:02:03.579Z,2.40
2018-02-11T14:04:31.099Z,2.40
2018-02-11T14:06:58.572Z,2.40
2018-02-11T14:09:26.053Z,2.40
2018-02-11T14:11:53.581Z,2.40
2018-02-11T14:14:21.074Z,2.40
2018-02-11T14:16:48.542Z,2.40
2018-02-11T14:19:16.017Z,2.40
2018-02-11T14:21:43.574Z,2.40
2018-02-11T14:24:11.034Z,2.50
2018-02-11T14:26:38.535Z,2.60
2018-02-11T14:29:06.021Z,2.50
2018-02-11T14:31:34.298Z,2.40
2018-02-11T14:34:02.559Z,2.40
2018-02-11T14:36:30.850Z,2.40
2018-02-11T14:38:59.100Z,2.40
2018-02-11T14:41:26.616Z,2.40
2018-02-11T14:43:54.091Z,2.40
2018-02-11T14:46:21.563Z,2.30
2018-02-11T14:48:49.097Z,2.40
2018-02-11T14:51:16.583Z,2.30
2018-02-11T14:53:44.087Z,2.30
2018-02-11T14:56:12.490Z,2.40
2018-02-11T14:58:39.987Z,2.40
2018-02-11T15:01:07.480Z,2.40
2018-02-11T15:03:35.830Z,2.50
2018-02-11T15:06:03.352Z,2.40
2018-02-11T15:08:30.860Z,2.50
2018-02-11T15:10:58.392Z,2.50
2018-02-11T15:13:25.871Z,2.50
2018-02-11T15:15:53.393Z,2.60
2018-02-11T15:18:20.878Z,2.60
2018-02-11T15:20:48.348Z,2.60
2018-02-11T15:23:15.871Z,2.60
2018-02-11T15:25:43.398Z,2.60
2018-02-11T15:28:10.906Z,2.60
2018-02-11T15:30:38.383Z,2.60
2018-02-11T15:33:05.899Z,2.60
2018-02-11T15:35:33.399Z,2.50
2018-02-11T15:38:00.911Z,2.50
2018-02-11T15:40:28.376Z,2.50
2018-02-11T15:42:55.890Z,2.40
2018-02-11T15:45:24.154Z,2.40
2018-02-11T15:47:51.686Z,2.30
2018-02-11T15:50:19.651Z,2.40
2018-02-11T15:52:47.123Z,2.30
2018-02-11T15:55:14.612Z,2.30
2018-02-11T15:57:42.860Z,2.30
2018-02-11T16:00:10.348Z,2.30
2018-02-11T16:02:38.623Z,2.40
2018-02-11T16:05:06.866Z,2.40
2018-02-11T16:07:34.380Z,2.40
2018-02-11T16:10:01.872Z,2.40
2018-02-11T16:12:29.338Z,2.40
2018-02-11T16:14:56.835Z,2.40
2018-02-11T16:17:25.092Z,2.40
2018-02-11T16:19:52.584Z,2.40
2018-02-11T16:22:20.051Z,2.50
2018-02-11T16:24:47.559Z,2.50
2018-02-11T16:27:15.072Z,2.50
2018-02-11T16:29:42.552Z,2.50
2018-02-11T16:32:10.052Z,2.50
2018-02-11T16:34:37.571Z,2.50
2018-02-11T16:37:05.030Z,2.50
2018-02-11T16:39:32.536Z,2.50
2018-02-11T16:42:00.807Z,2.60
2018-02-11T16:44:29.064Z,2.60
2018-02-11T16:46:56.564Z,2.50
2018-02-11T16:49:24.798Z,2.50
2018-02-11T16:51:52.310Z,2.50
2018-02-11T16:54:19.769Z,2.50
2018-02-11T16:56:47.266Z,2.50
2018-02-11T16:59:14.763Z,2.50
2018-02-11T17:01:43.042Z,2.50
2018-02-11T17:04:11.305Z,2.50
2018-02-11T17:06:38.786Z,2.50
2018-02-11T17:09:07.046Z,2.40
2018-02-11T17:11:35.304Z,2.40
2018-02-11T17:14:02.807Z,2.40
2018-02-11T17:16:30.274Z,2.40
2018-02-11T17:18:57.751Z,2.40
2018-02-11T17:21:25.236Z,2.40
2018-02-11T17:23:52.729Z,2.40
2018-02-11T17:26:20.994Z,2.40
2018-02-11T17:28:49.238Z,2.40
2018-02-11T17:31:16.770Z,2.40
2018-02-11T17:33:44.235Z,2.40
2018-02-11T17:36:11.705Z,2.40
2018-02-11T17:38:39.198Z,2.40
2018-02-11T17:41:06.662Z,2.40
2018-02-11T17:43:34.918Z,2.40
2018-02-11T17:46:02.397Z,2.40
2018-02-11T17:48:29.871Z,2.40
2018-02-11T17:50:57.359Z,2.40
2018-02-11T17:53:24.867Z,2.40
2018-02-11T17:55:52.339Z,2.40
2018-02-11T17:58:20.574Z,2.40
2018-02-11T18:00:48.085Z,2.40
2018-02-11T18:03:16.314Z,2.40
2018-02-11T18:05:43.800Z,2.30
2018-02-11T18:08:12.062Z,2.30
2018-02-11T18:10:39.589Z,2.30
2018-02-11T18:13:07.058Z,2.30
2018-02-11T18:15:34.552Z,2.30
2018-02-11T18:18:02.050Z,2.20
2018-02-11T18:20:29.532Z,2.20
2018-02-11T18:22:57.059Z,2.20
2018-02-11T18:25:24.541Z,2.20
2018-02-11T18:27:52.035Z,2.10
2018-02-11T18:30:19.564Z,2.10
2018-02-11T18:32:47.029Z,2.10
2018-02-11T18:35:14.527Z,2.20
2018-02-11T18:37:42.780Z,2.20
2018-02-11T18:40:10.310Z,2.20
2018-02-11T18:42:37.798Z,2.20
2018-02-11T18:45:05.332Z,2.20
2018-02-11T18:47:32.887Z,2.20
2018-02-11T18:50:00.401Z,2.20
2018-02-11T18:52:28.674Z,2.20
2018-02-11T18:54:56.971Z,2.30
2018-02-11T18:57:25.248Z,2.30
2018-02-11T18:59:53.499Z,2.30
2018-02-11T19:02:21.007Z,2.30
2018-02-11T19:04:48.500Z,2.30
2018-02-11T19:07:16.017Z,2.30
2018-02-11T19:09:43.494Z,2.30
2018-02-11T19:12:10.986Z,2.20
2018-02-11T19:14:38.482Z,2.20
2018-02-11T19:17:05.991Z,2.30
2018-02-11T19:19:33.471Z,2.20
2018-02-11T19:22:00.978Z,2.20
2018-02-11T19:24:28.453Z,2.20
2018-02-11T19:26:55.960Z,2.20
2018-02-11T19:29:24.226Z,2.20
2018-02-11T19:31:51.710Z,2.20
2018-02-11T19:34:19.210Z,2.20
2018-02-11T19:36:46.710Z,2.20
2018-02-11T19:39:14.972Z,2.20
2018-02-11T19:41:42.470Z,2.20
2018-02-11T19:44:09.985Z,2.20
2018-02-11T19:46:37.461Z,2.20
2018-02-11T19:49:05.703Z,2.20
2018-02-11T19:51:33.201Z,2.20
2018-02-11T19:54:01.450Z,2.20
2018-02-11T19:56:28.959Z,2.20
2018-02-11T19:58:56.455Z,2.20
2018-02-11T20:01:23.914Z,2.20
2018-02-11T20:03:51.415Z,2.20
2018-02-11T20:06:19.650Z,2.20
2018-02-11T20:08:47.174Z,2.20
2018-02-11T20:11:14.651Z,2.20
2018-02-11T20:13:42.151Z,2.20
2018-02-11T20:16:09.628Z,2.20
2018-02-11T20:18:37.885Z,2.10
2018-02-11T20:21:05.382Z,2.10
2018-02-11T20:23:32.877Z,2.10
2018-02-11T20:26:00.411Z,2.10
2018-02-11T20:28:27.898Z,2.10
2018-02-11T20:30:55.396Z,2.10
2018-02-11T20:33:23.632Z,2.10
2018-02-11T20:35:51.142Z,2.00
2018-02-11T20:38:19.419Z,2.00
2018-02-11T20:40:46.917Z,2.00
2018-02-11T20:43:14.406Z,2.10
2018-02-11T20:45:42.652Z,2.00
2018-02-11T20:48:10.153Z,2.00
2018-02-11T20:50:38.382Z,2.10
2018-02-11T20:53:05.870Z,2.10
2018-02-11T20:55:33.388Z,2.00
2018-02-11T20:58:00.862Z,2.00
2018-02-11T21:00:28.376Z,2.00
2018-02-11T21:02:55.856Z,2.00
2018-02-11T21:05:23.351Z,2.00
2018-02-11T21:07:50.830Z,1.90
2018-02-11T21:10:18.327Z,1.90
2018-02-11T21:12:45.822Z,1.90
2018-02-11T21:15:13.334Z,1.90
2018-02-11T21:17:41.630Z,1.80
2018-02-11T21:20:09.150Z,1.80
2018-02-11T21:22:37.428Z,1.80
2018-02-11T21:25:05.684Z,1.80
2018-02-11T21:27:33.183Z,1.80
2018-02-11T21:30:00.670Z,1.80
2018-02-11T21:32:28.166Z,1.80
2018-02-11T21:34:55.651Z,1.70
2018-02-11T21:37:23.901Z,1.70
2018-02-11T21:39:51.394Z,1.70
2018-02-11T21:42:18.900Z,1.70
2018-02-11T21:44:46.380Z,1.70
2018-02-11T21:47:13.878Z,1.70
2018-02-11T21:49:41.372Z,1.70
2018-02-11T21:52:08.863Z,1.70
2018-02-11T21:54:37.126Z,1.80
2018-02-11T21:57:04.621Z,1.80
2018-02-11T21:59:32.850Z,1.70
2018-02-11T22:02:00.351Z,1.70
2018-02-11T22:04:27.831Z,1.70
2018-02-11T22:06:55.334Z,1.70
2018-02-11T22:09:22.802Z,1.70
2018-02-11T22:11:50.335Z,1.70
2018-02-11T22:14:17.829Z,1.80
2018-02-11T22:16:45.323Z,1.70
2018-02-11T22:19:12.779Z,1.70
2018-02-11T22:21:40.281Z,1.70
2018-02-11T22:24:07.756Z,1.80
2018-02-11T22:26:35.222Z,1.80
2018-02-11T22:29:03.478Z,1.80
2018-02-11T22:31:30.949Z,1.80
2018-02-11T22:33:58.445Z,1.80
2018-02-11T22:36:25.919Z,1.80
2018-02-11T22:38:53.411Z,1.80
2018-02-11T22:41:20.865Z,1.80
2018-02-11T22:43:48.361Z,1.80
2018-02-11T22:46:16.578Z,1.80
2018-02-11T22:48:44.064Z,1.80
2018-02-11T22:51:11.543Z,1.80
2018-02-11T22:53:39.765Z,1.80
2018-02-11T22:56:07.262Z,1.80
2018-02-11T22:58:34.718Z,1.70
2018-02-11T23:01:02.241Z,1.70
2018-02-11T23:03:29.703Z,1.60
2018-02-11T23:05:57.210Z,1.60
2018-02-11T23:08:25.457Z,1.50
2018-02-11T23:10:52.961Z,1.50
2018-02-11T23:13:21.183Z,1.50
2018-02-11T23:15:48.642Z,1.50
2018-02-11T23:18:16.155Z,1.40
2018-02-11T23:20:43.640Z,1.40
2018-02-11T23:23:11.150Z,1.40
2018-02-11T23:25:39.378Z,1.30
2018-02-11T23:28:06.880Z,1.30
2018-02-11T23:30:34.390Z,1.30
2018-02-11T23:33:01.860Z,1.30
2018-02-11T23:35:29.361Z,1.20
2018-02-11T23:37:57.607Z,1.10
2018-02-11T23:40:25.108Z,1.10
2018-02-11T23:42:53.325Z,0.90
2018-02-11T23:45:20.805Z,0.90
2018-02-11T23:47:48.299Z,0.80
2018-02-11T23:50:16.558Z,0.60
2018-02-11T23:52:44.042Z,0.60
2018-02-11T23:55:12.276Z,0.30
2018-02-11T23:57:39.797Z,0.30
